Terminal Aerodrome Forecast
Issued by NWS

Current Version | Previous Version | Graphics & Text | Print | Product List | Glossary Off
Versions: 1 2 3 4 5 6 7 8 9 10 11 12 13 14 15 16 17 18 19 20 21 22

000
FTUS41 KRLX 281700 RRA
TAFCKB
TAF
KCKB 281745Z 2818/0118 00000KT P6SM BKN090
     FM010900 00000KT P6SM -SN OVC035
     FM011100 00000KT 5SM -SN BR OVC025
     FM011200 00000KT 5SM -SN BR OVC015
     FM011400 00000KT 6SM -RASN BR OVC010
     FM011500 VRB03KT P6SM -RA OVC010
     FM011600 VRB03KT P6SM -RA OVC008=

USA.gov is the U.S. government's official web portal to all federal, state and local government web resources and services.